createdAt,value
2023-03-10T00:01:40.015Z,6.30
2023-03-10T00:04:37.437Z,5.90
2023-03-10T00:07:07.280Z,6.70
2023-03-10T00:09:37.286Z,4.50
2023-03-10T00:12:06.572Z,3.70
2023-03-10T00:14:36.838Z,5.00
2023-03-10T00:17:30.480Z,5.10
2023-03-10T00:20:07.393Z,5.40
2023-03-10T00:22:41.399Z,6.70
2023-03-10T00:25:10.357Z,5.20
2023-03-10T00:27:42.584Z,6.10
2023-03-10T00:30:13.618Z,6.30
2023-03-10T00:32:50.421Z,7.20
2023-03-10T00:35:22.775Z,4.70
2023-03-10T00:37:51.122Z,4.80
2023-03-10T00:40:23.694Z,5.20
2023-03-10T00:42:58.962Z,5.60
2023-03-10T00:45:27.988Z,4.70
2023-03-10T00:47:58.901Z,4.50
2023-03-10T00:50:53.571Z,4.70
2023-03-10T00:53:27.193Z,4.20
2023-03-10T00:56:14.091Z,5.10
2023-03-10T00:58:43.495Z,5.40
2023-03-10T01:01:34.418Z,5.10
2023-03-10T01:04:09.551Z,6.30
2023-03-10T01:06:39.782Z,5.00
2023-03-10T01:09:10.889Z,6.20
2023-03-10T01:11:44.806Z,5.20
2023-03-10T01:14:14.675Z,5.90
2023-03-10T01:16:42.858Z,7.10
2023-03-10T01:19:15.526Z,5.30
2023-03-10T01:21:43.732Z,5.70
2023-03-10T01:24:14.809Z,5.40
2023-03-10T01:26:44.680Z,5.60
2023-03-10T01:29:15.972Z,6.20
2023-03-10T01:31:48.254Z,5.80
2023-03-10T01:34:16.062Z,6.70
2023-03-10T01:36:46.341Z,5.00
2023-03-10T01:39:16.734Z,7.70
2023-03-10T01:41:43.941Z,5.10
2023-03-10T01:44:17.494Z,5.20
2023-03-10T01:46:49.996Z,5.60
2023-03-10T01:49:25.997Z,5.10
2023-03-10T01:52:15.583Z,5.20
2023-03-10T01:54:56.201Z,4.50
2023-03-10T01:57:25.259Z,4.80
2023-03-10T01:59:55.629Z,4.70
2023-03-10T02:02:25.107Z,4.30
2023-03-10T02:04:55.831Z,5.70
2023-03-10T02:09:59.928Z,5.20
2023-03-10T02:12:38.900Z,4.30
2023-03-10T02:15:10.534Z,5.40
2023-03-10T02:17:42.995Z,4.90
2023-03-10T02:20:31.129Z,4.50
2023-03-10T02:23:01.066Z,4.70
2023-03-10T02:25:52.804Z,4.60
2023-03-10T02:28:46.750Z,5.80
2023-03-10T02:31:17.528Z,5.50
2023-03-10T02:33:47.390Z,5.00
2023-03-10T02:36:21.166Z,6.10
2023-03-10T02:38:51.614Z,9.20
2023-03-10T02:41:29.277Z,12.80
2023-03-10T02:44:00.266Z,12.70
2023-03-10T02:46:32.088Z,16.10
2023-03-10T02:49:04.903Z,16.20
2023-03-10T02:51:42.354Z,14.40
2023-03-10T02:54:16.832Z,16.90
2023-03-10T02:56:46.699Z,16.80
2023-03-10T02:59:16.012Z,16.40
2023-03-10T03:01:50.462Z,17.20
2023-03-10T03:04:21.026Z,16.20
2023-03-10T03:06:48.800Z,18.70
2023-03-10T03:09:20.871Z,13.40
2023-03-10T03:11:48.506Z,12.10
2023-03-10T03:14:19.662Z,12.10
2023-03-10T03:16:50.234Z,13.50
2023-03-10T03:21:20.836Z,10.60
2023-03-10T03:23:52.335Z,10.50
2023-03-10T03:26:26.437Z,9.10
2023-03-10T03:28:59.849Z,9.10
2023-03-10T03:31:38.396Z,7.50
2023-03-10T03:34:15.318Z,8.30
2023-03-10T03:36:47.577Z,8.20
2023-03-10T03:39:20.073Z,8.20
2023-03-10T03:41:56.880Z,7.50
2023-03-10T03:44:30.328Z,7.60
2023-03-10T03:46:59.664Z,6.10
2023-03-10T03:49:34.989Z,4.70
2023-03-10T03:52:03.632Z,5.50
2023-03-10T03:54:36.550Z,5.10
2023-03-10T03:57:06.296Z,4.00
2023-03-10T03:59:40.277Z,6.20
2023-03-10T04:02:10.723Z,4.50
2023-03-10T04:04:43.524Z,4.80
2023-03-10T04:07:11.754Z,5.10
2023-03-10T04:09:43.011Z,4.70
2023-03-10T04:12:17.655Z,4.70
2023-03-10T04:14:49.350Z,4.40
2023-03-10T04:17:18.838Z,3.80
2023-03-10T04:20:06.284Z,4.10
2023-03-10T04:22:43.387Z,4.10
2023-03-10T04:25:12.588Z,4.10
2023-03-10T04:27:41.025Z,4.30
2023-03-10T04:30:13.350Z,3.40
2023-03-10T04:32:49.307Z,4.70
2023-03-10T04:35:25.670Z,3.40
2023-03-10T04:37:58.664Z,3.10
2023-03-10T04:40:27.459Z,4.70
2023-03-10T04:42:55.036Z,3.80
2023-03-10T04:45:24.339Z,4.30
2023-03-10T04:47:52.856Z,3.40
2023-03-10T04:50:23.531Z,3.80
2023-03-10T04:52:52.188Z,4.20
2023-03-10T04:55:24.851Z,4.00
2023-03-10T04:57:55.858Z,3.70
2023-03-10T05:00:31.803Z,3.80
2023-03-10T05:03:04.292Z,3.30
2023-03-10T05:05:37.416Z,3.90
2023-03-10T05:08:13.600Z,3.50
2023-03-10T05:10:44.939Z,3.00
2023-03-10T05:13:16.410Z,3.40
2023-03-10T05:15:55.052Z,3.40
2023-03-10T05:18:25.679Z,3.20
2023-03-10T05:20:57.095Z,3.50
2023-03-10T05:23:25.685Z,3.60
2023-03-10T05:25:55.597Z,3.80
2023-03-10T05:31:14.557Z,3.70
2023-03-10T05:33:44.705Z,4.30
2023-03-10T05:36:15.468Z,3.70
2023-03-10T05:38:44.838Z,3.70
2023-03-10T05:41:17.827Z,3.40
2023-03-10T05:43:52.445Z,3.50
2023-03-10T05:46:23.956Z,4.90
2023-03-10T05:48:56.025Z,3.80
2023-03-10T05:51:27.754Z,3.60
2023-03-10T05:53:56.019Z,3.50
2023-03-10T05:56:30.920Z,4.30
2023-03-10T05:59:02.527Z,4.70
2023-03-10T06:01:37.910Z,4.50
2023-03-10T06:04:06.280Z,4.30
2023-03-10T06:06:47.525Z,3.70
2023-03-10T06:09:24.506Z,6.50
2023-03-10T06:14:32.450Z,4.20
2023-03-10T06:17:03.008Z,5.30
2023-03-10T06:19:42.034Z,3.30
2023-03-10T06:22:11.680Z,3.50
2023-03-10T06:24:40.275Z,3.60
2023-03-10T06:27:12.031Z,4.30
2023-03-10T06:29:40.837Z,5.30
2023-03-10T06:32:12.258Z,3.90
2023-03-10T06:34:43.223Z,4.20
2023-03-10T06:37:12.060Z,3.30
2023-03-10T06:39:42.097Z,3.60
2023-03-10T06:42:12.022Z,4.50
2023-03-10T06:44:49.389Z,3.40
2023-03-10T06:47:20.638Z,3.50
2023-03-10T06:49:54.229Z,3.70
2023-03-10T06:52:31.153Z,3.20
2023-03-10T06:55:29.861Z,5.10
2023-03-10T06:58:06.090Z,3.70
2023-03-10T07:00:39.861Z,3.00
2023-03-10T07:03:11.913Z,5.00
2023-03-10T07:05:48.101Z,6.00
2023-03-10T07:08:26.406Z,3.30
2023-03-10T07:11:00.448Z,3.50
2023-03-10T07:13:34.649Z,3.30
2023-03-10T07:16:05.793Z,3.50
2023-03-10T07:18:37.440Z,3.30
2023-03-10T07:21:10.772Z,3.30
2023-03-10T07:23:41.450Z,2.60
2023-03-10T07:26:13.926Z,2.80
2023-03-10T07:28:46.503Z,3.50
2023-03-10T07:31:17.360Z,2.90
2023-03-10T07:36:25.923Z,3.50
2023-03-10T07:39:01.506Z,3.50
2023-03-10T07:41:30.939Z,2.80
2023-03-10T07:43:59.102Z,4.10
2023-03-10T07:46:28.093Z,5.70
2023-03-10T07:49:00.605Z,4.60
2023-03-10T07:52:14.810Z,3.30
2023-03-10T07:54:50.651Z,3.60
2023-03-10T07:57:32.407Z,5.90
2023-03-10T08:00:02.588Z,3.60
2023-03-10T08:02:46.249Z,6.10
2023-03-10T08:07:52.132Z,4.60
2023-03-10T08:10:21.206Z,5.00
2023-03-10T08:12:54.208Z,4.50
2023-03-10T08:18:16.968Z,4.00
2023-03-10T08:20:44.835Z,3.90
2023-03-10T08:23:28.177Z,5.20
2023-03-10T08:26:00.743Z,4.10
2023-03-10T08:31:26.375Z,4.20
2023-03-10T08:34:05.546Z,5.30
2023-03-10T08:36:40.251Z,4.90
2023-03-10T08:39:08.250Z,4.80
2023-03-10T08:42:37.324Z,3.20
2023-03-10T08:45:13.659Z,3.60
2023-03-10T08:48:38.571Z,3.20
2023-03-10T08:51:09.570Z,3.80
2023-03-10T08:53:39.281Z,4.40
2023-03-10T09:00:26.593Z,4.50
2023-03-10T09:02:57.626Z,5.30
2023-03-10T09:05:39.395Z,4.00
2023-03-10T09:08:40.163Z,3.50
2023-03-10T09:11:09.439Z,5.70
2023-03-10T09:14:16.747Z,4.20
2023-03-10T09:16:50.609Z,4.40
2023-03-10T09:19:25.976Z,4.90
2023-03-10T09:22:02.340Z,5.50
2023-03-10T09:24:35.956Z,3.70
2023-03-10T09:27:26.225Z,3.20
2023-03-10T09:30:30.566Z,3.40
2023-03-10T09:33:04.494Z,4.10
2023-03-10T09:35:34.307Z,3.10
2023-03-10T09:38:12.413Z,3.50
2023-03-10T09:40:48.624Z,3.20
2023-03-10T09:43:55.595Z,3.60
2023-03-10T09:47:12.696Z,4.30
2023-03-10T09:50:16.297Z,4.30
2023-03-10T09:53:16.093Z,4.00
2023-03-10T09:55:52.665Z,4.60
2023-03-10T09:58:48.343Z,3.90
2023-03-10T10:01:21.140Z,5.30
2023-03-10T10:04:39.376Z,4.00
2023-03-10T10:07:20.751Z,4.30
2023-03-10T10:10:21.112Z,4.20
2023-03-10T10:12:57.647Z,3.70
2023-03-10T10:15:27.833Z,5.00
2023-03-10T10:18:25.590Z,4.40
2023-03-10T10:21:41.776Z,6.10
2023-03-10T10:24:54.650Z,5.40
2023-03-10T10:27:27.732Z,4.80
2023-03-10T10:30:34.901Z,3.90
2023-03-10T10:33:12.233Z,5.10
2023-03-10T10:35:45.804Z,4.50
2023-03-10T10:38:15.337Z,5.20
2023-03-10T10:41:19.583Z,6.10
2023-03-10T10:43:51.813Z,3.80
2023-03-10T10:46:34.149Z,6.10
2023-03-10T10:49:35.032Z,5.70
2023-03-10T10:52:20.229Z,4.30
2023-03-10T10:54:58.411Z,5.60
2023-03-10T10:57:35.874Z,4.50
2023-03-10T11:00:18.024Z,4.70
2023-03-10T11:02:52.547Z,4.70
2023-03-10T11:05:31.395Z,6.20
2023-03-10T11:08:18.822Z,5.20
2023-03-10T11:10:53.402Z,5.20
2023-03-10T11:13:28.980Z,6.80
2023-03-10T11:16:16.428Z,7.00
2023-03-10T11:19:25.290Z,5.70
2023-03-10T11:21:59.138Z,6.10
2023-03-10T11:24:41.030Z,9.20
2023-03-10T11:27:39.424Z,6.40
2023-03-10T11:30:17.276Z,5.10
2023-03-10T11:33:14.771Z,5.50
2023-03-10T11:35:55.112Z,6.10
2023-03-10T11:38:42.780Z,7.40
2023-03-10T11:41:22.838Z,7.60
2023-03-10T11:44:22.649Z,9.30
2023-03-10T11:46:58.960Z,9.00
2023-03-10T11:49:39.673Z,9.20
2023-03-10T11:52:17.483Z,9.80
2023-03-10T11:54:49.835Z,10.00
2023-03-10T11:57:45.472Z,9.60
2023-03-10T12:00:26.910Z,8.70
2023-03-10T12:03:18.161Z,9.60
2023-03-10T12:05:59.113Z,8.10
2023-03-10T12:08:36.718Z,8.90
2023-03-10T12:11:34.672Z,9.00
2023-03-10T12:14:05.693Z,7.50
2023-03-10T12:16:39.204Z,7.90
2023-03-10T12:19:11.206Z,8.30
2023-03-10T12:21:47.195Z,14.70
2023-03-10T12:24:42.466Z,20.50
2023-03-10T12:27:15.745Z,58.10
2023-03-10T12:29:45.870Z,53.40
2023-03-10T12:32:41.898Z,81.60
2023-03-10T12:35:33.142Z,76.10
2023-03-10T12:38:29.814Z,72.60
2023-03-10T12:40:58.953Z,103.10
2023-03-10T12:43:52.085Z,46.10
2023-03-10T12:46:41.876Z,24.60
2023-03-10T12:49:41.508Z,19.20
2023-03-10T12:52:29.928Z,14.60
2023-03-10T12:55:24.502Z,14.20
2023-03-10T12:58:24.035Z,26.40
2023-03-10T13:01:19.893Z,65.10
2023-03-10T13:03:56.760Z,16.90
2023-03-10T13:06:40.786Z,14.60
2023-03-10T13:09:36.936Z,25.10
2023-03-10T13:12:16.939Z,28.60
2023-03-10T13:14:50.247Z,26.90
2023-03-10T13:17:23.319Z,26.50
2023-03-10T13:19:57.084Z,29.50
2023-03-10T13:22:26.205Z,16.30
2023-03-10T13:25:15.039Z,13.80
2023-03-10T13:27:46.437Z,14.10
2023-03-10T13:30:21.476Z,12.50
2023-03-10T13:32:57.977Z,8.10
2023-03-10T13:35:29.954Z,9.30
2023-03-10T13:38:20.363Z,9.50
2023-03-10T13:41:01.938Z,12.20
2023-03-10T13:43:38.491Z,14.80
2023-03-10T13:46:26.243Z,10.30
2023-03-10T13:48:57.769Z,9.80
2023-03-10T13:51:32.231Z,8.90
2023-03-10T13:54:43.234Z,10.50
2023-03-10T13:57:31.656Z,9.20
2023-03-10T14:00:09.007Z,7.20
2023-03-10T14:02:50.375Z,5.30
2023-03-10T14:05:46.232Z,6.60
2023-03-10T14:08:27.618Z,7.60
2023-03-10T14:11:33.964Z,7.40
2023-03-10T14:14:02.169Z,7.60
2023-03-10T14:16:54.209Z,9.30
2023-03-10T14:19:43.001Z,10.90
2023-03-10T14:22:30.089Z,7.50
2023-03-10T14:25:00.430Z,10.50
2023-03-10T14:27:30.151Z,7.80
2023-03-10T14:30:01.864Z,11.00
2023-03-10T14:32:34.569Z,9.00
2023-03-10T14:35:10.385Z,7.60
2023-03-10T14:38:07.146Z,9.30
2023-03-10T14:40:40.301Z,9.20
2023-03-10T14:43:13.695Z,8.90
2023-03-10T14:45:44.067Z,8.20
2023-03-10T14:48:19.826Z,10.20
2023-03-10T14:50:56.278Z,6.60
2023-03-10T14:53:26.629Z,8.80
2023-03-10T14:55:57.763Z,6.20
2023-03-10T14:58:32.200Z,7.50
2023-03-10T15:01:00.767Z,8.30
2023-03-10T15:03:34.165Z,9.20
2023-03-10T15:06:06.201Z,9.10
2023-03-10T15:08:52.369Z,13.00
2023-03-10T15:11:37.118Z,12.20
2023-03-10T15:14:25.610Z,10.30
2023-03-10T15:17:05.220Z,14.10
2023-03-10T15:19:37.389Z,12.70
2023-03-10T15:22:09.002Z,13.10
2023-03-10T15:24:45.402Z,12.80
2023-03-10T15:27:23.140Z,10.80
2023-03-10T15:29:55.495Z,9.60
2023-03-10T15:32:55.435Z,12.30
2023-03-10T15:35:28.741Z,10.60
2023-03-10T15:39:25.521Z,8.30
2023-03-10T15:42:04.767Z,8.60
2023-03-10T15:44:34.695Z,7.00
2023-03-10T15:47:10.280Z,7.70
2023-03-10T15:49:45.071Z,8.20
2023-03-10T15:52:17.461Z,7.50
2023-03-10T15:54:46.523Z,7.10
2023-03-10T15:57:16.028Z,6.00
2023-03-10T15:59:44.938Z,9.80
2023-03-10T16:02:15.031Z,10.00
2023-03-10T16:04:44.330Z,7.30
2023-03-10T16:07:17.313Z,5.80
2023-03-10T16:09:51.314Z,5.30
2023-03-10T16:12:22.964Z,6.20
2023-03-10T16:14:59.521Z,5.40
2023-03-10T16:17:31.510Z,7.30
2023-03-10T16:20:11.910Z,6.90
2023-03-10T16:22:42.569Z,11.10
2023-03-10T16:25:18.490Z,9.10
2023-03-10T16:27:47.159Z,9.30
2023-03-10T16:30:17.051Z,10.10
2023-03-10T16:32:54.099Z,7.50
2023-03-10T16:35:21.902Z,9.60
2023-03-10T16:37:51.330Z,10.50
2023-03-10T16:40:22.413Z,9.70
2023-03-10T16:42:56.328Z,10.50
2023-03-10T16:45:27.016Z,12.90
2023-03-10T16:47:56.548Z,16.20
2023-03-10T16:50:26.231Z,16.90
2023-03-10T16:52:56.352Z,20.30
2023-03-10T16:55:26.692Z,20.10
2023-03-10T16:57:54.274Z,27.30
2023-03-10T17:00:23.913Z,25.00
2023-03-10T17:02:53.728Z,22.90
2023-03-10T17:05:22.724Z,25.60
2023-03-10T17:08:01.982Z,32.50
2023-03-10T17:10:30.740Z,19.00
2023-03-10T17:13:00.706Z,27.60
2023-03-10T17:15:32.720Z,22.30
2023-03-10T17:18:02.664Z,22.40
2023-03-10T17:20:38.772Z,21.90
2023-03-10T17:23:52.756Z,22.30
2023-03-10T17:26:27.373Z,28.00
2023-03-10T17:28:58.998Z,25.80
2023-03-10T17:32:49.208Z,24.80
2023-03-10T17:35:18.033Z,27.30
2023-03-10T17:37:51.628Z,23.90
2023-03-10T17:43:17.637Z,31.80
2023-03-10T17:46:07.579Z,33.60
2023-03-10T17:48:43.895Z,35.40
2023-03-10T17:51:16.760Z,28.90
2023-03-10T17:53:53.815Z,30.40
2023-03-10T17:56:51.799Z,22.50
2023-03-10T17:59:26.962Z,20.40
2023-03-10T18:02:02.197Z,21.20
2023-03-10T18:04:35.244Z,21.80
2023-03-10T18:07:04.046Z,19.20
2023-03-10T18:09:51.114Z,21.20
2023-03-10T18:12:24.612Z,15.20
2023-03-10T18:14:55.860Z,14.90
2023-03-10T18:17:31.768Z,23.70
2023-03-10T18:20:14.106Z,17.00
2023-03-10T18:23:12.637Z,12.40
2023-03-10T18:25:48.466Z,12.20
2023-03-10T18:28:20.747Z,12.00
2023-03-10T18:31:22.017Z,16.00
2023-03-10T18:34:15.256Z,13.40
2023-03-10T18:39:27.254Z,9.50
2023-03-10T18:41:56.852Z,12.10
2023-03-10T18:44:27.606Z,13.60
2023-03-10T18:47:05.899Z,10.30
2023-03-10T18:49:39.750Z,14.30
2023-03-10T18:52:15.734Z,13.40
2023-03-10T18:54:47.223Z,8.20
2023-03-10T18:59:51.921Z,10.80
2023-03-10T19:02:27.981Z,9.60
2023-03-10T19:05:25.791Z,9.20
2023-03-10T19:08:03.893Z,11.50
2023-03-10T19:10:33.016Z,10.80
2023-03-10T19:13:02.638Z,13.10
2023-03-10T19:15:34.177Z,16.20
2023-03-10T19:20:59.901Z,13.60
2023-03-10T19:26:02.102Z,14.40
2023-03-10T19:28:34.254Z,11.30
2023-03-10T19:31:15.777Z,10.90
2023-03-10T19:33:49.874Z,11.40
2023-03-10T19:36:45.115Z,11.30
2023-03-10T19:39:48.307Z,11.50
2023-03-10T19:42:47.154Z,9.10
2023-03-10T19:45:49.014Z,11.70
2023-03-10T19:48:47.762Z,10.60
2023-03-10T19:51:29.971Z,11.40
2023-03-10T19:54:04.859Z,9.80
2023-03-10T19:56:37.182Z,9.10
2023-03-10T19:59:09.744Z,10.50
2023-03-10T20:01:48.242Z,13.00
2023-03-10T20:04:18.349Z,12.10
2023-03-10T20:06:46.339Z,9.20
2023-03-10T20:09:22.094Z,11.90
2023-03-10T20:11:58.976Z,11.50
2023-03-10T20:14:27.933Z,7.40
2023-03-10T20:20:20.011Z,10.40
2023-03-10T20:22:50.464Z,10.80
2023-03-10T20:25:27.607Z,11.60
2023-03-10T20:27:58.676Z,8.50
2023-03-10T20:30:55.844Z,11.30
2023-03-10T20:33:25.968Z,9.90
2023-03-10T20:35:55.509Z,10.70
2023-03-10T20:38:54.061Z,11.10
2023-03-10T20:41:29.527Z,14.40
2023-03-10T20:44:09.023Z,12.20
2023-03-10T20:46:45.148Z,9.30
2023-03-10T20:49:18.325Z,9.60
2023-03-10T20:51:49.354Z,13.00
2023-03-10T20:54:45.708Z,10.10
2023-03-10T20:57:18.393Z,10.80
2023-03-10T20:59:53.619Z,9.50
2023-03-10T21:02:23.428Z,11.20
2023-03-10T21:04:54.845Z,11.80
2023-03-10T21:07:22.701Z,10.90
2023-03-10T21:09:53.354Z,12.60
2023-03-10T21:12:56.634Z,14.80
2023-03-10T21:15:35.158Z,16.00
2023-03-10T21:18:06.454Z,11.10
2023-03-10T21:20:40.401Z,13.80
2023-03-10T21:23:14.607Z,12.60
2023-03-10T21:25:53.670Z,12.10
2023-03-10T21:28:24.761Z,11.30
2023-03-10T21:30:56.084Z,11.00
2023-03-10T21:33:27.575Z,9.60
2023-03-10T21:36:10.588Z,10.70
2023-03-10T21:39:45.773Z,11.30
2023-03-10T21:42:18.083Z,9.20
2023-03-10T21:44:52.239Z,9.40
2023-03-10T21:47:22.977Z,9.90
2023-03-10T21:49:59.864Z,8.90
2023-03-10T21:52:34.613Z,11.00
2023-03-10T21:55:04.407Z,10.10
2023-03-10T21:57:38.861Z,9.00
2023-03-10T22:00:12.105Z,12.20
2023-03-10T22:02:42.660Z,10.20
2023-03-10T22:05:14.133Z,12.00
2023-03-10T22:07:47.683Z,11.20
2023-03-10T22:10:19.780Z,11.80
2023-03-10T22:12:54.943Z,12.90
2023-03-10T22:15:31.303Z,11.60
2023-03-10T22:21:39.057Z,13.30
2023-03-10T22:24:08.770Z,12.20
2023-03-10T22:26:38.281Z,13.00
2023-03-10T22:29:08.064Z,12.80
2023-03-10T22:31:35.740Z,14.80
2023-03-10T22:34:04.231Z,16.40
2023-03-10T22:36:35.106Z,18.40
2023-03-10T22:39:05.270Z,18.60
2023-03-10T22:41:32.333Z,20.70
2023-03-10T22:44:01.592Z,22.00
2023-03-10T22:46:32.176Z,25.70
2023-03-10T22:49:01.235Z,20.40
2023-03-10T22:51:29.912Z,17.00
2023-03-10T22:54:00.273Z,19.60
2023-03-10T22:56:29.122Z,18.30
2023-03-10T22:58:58.148Z,17.20
2023-03-10T23:01:26.162Z,17.10
2023-03-10T23:03:53.941Z,18.00
2023-03-10T23:06:28.786Z,19.50
2023-03-10T23:08:57.182Z,19.00
2023-03-10T23:11:25.109Z,22.60
2023-03-10T23:13:54.728Z,24.00
2023-03-10T23:16:27.168Z,24.10
2023-03-10T23:18:56.037Z,22.50
2023-03-10T23:21:24.710Z,18.30
2023-03-10T23:23:52.284Z,17.60
2023-03-10T23:26:20.660Z,21.50
2023-03-10T23:28:51.618Z,16.80
2023-03-10T23:31:22.467Z,17.10
2023-03-10T23:33:56.881Z,17.80
2023-03-10T23:36:24.999Z,14.00
2023-03-10T23:38:54.176Z,13.60
2023-03-10T23:41:28.867Z,13.90
2023-03-10T23:43:58.043Z,15.40
2023-03-10T23:46:26.708Z,14.70
2023-03-10T23:48:55.453Z,14.60
2023-03-10T23:51:25.792Z,13.60
2023-03-10T23:53:53.416Z,14.70
2023-03-10T23:56:22.102Z,16.40
2023-03-10T23:58:50.359Z,15.10
